sensor_id;sensor_type;location;lat;lon;timestamp;temperature;humidity
65087;DHT22;52094;51.234;-2.310;2022-09-30T00:01:00;8.00;76.80
65087;DHT22;52094;51.234;-2.310;2022-09-30T00:04:50;8.10;75.60
65087;DHT22;52094;51.234;-2.310;2022-09-30T00:08:32;8.10;75.90
65087;DHT22;52094;51.234;-2.310;2022-09-30T00:12:15;8.00;75.60
65087;DHT22;52094;51.234;-2.310;2022-09-30T00:15:59;8.10;75.50
65087;DHT22;52094;51.234;-2.310;2022-09-30T00:19:41;8.10;75.40
65087;DHT22;52094;51.234;-2.310;2022-09-30T00:23:23;8.00;75.40
65087;DHT22;52094;51.234;-2.310;2022-09-30T00:27:06;8.00;75.40
65087;DHT22;52094;51.234;-2.310;2022-09-30T00:30:49;7.90;75.40
65087;DHT22;52094;51.234;-2.310;2022-09-30T00:34:31;7.90;75.40
65087;DHT22;52094;51.234;-2.310;2022-09-30T00:38:13;7.80;75.80
65087;DHT22;52094;51.234;-2.310;2022-09-30T00:41:59;7.70;75.60
65087;DHT22;52094;51.234;-2.310;2022-09-30T00:45:50;7.70;75.40
65087;DHT22;52094;51.234;-2.310;2022-09-30T00:49:35;7.60;75.90
65087;DHT22;52094;51.234;-2.310;2022-09-30T00:53:45;7.50;75.80
65087;DHT22;52094;51.234;-2.310;2022-09-30T00:57:29;7.40;76.90
65087;DHT22;52094;51.234;-2.310;2022-09-30T01:01:12;7.40;75.80
65087;DHT22;52094;51.234;-2.310;2022-09-30T01:04:56;7.30;76.00
65087;DHT22;52094;51.234;-2.310;2022-09-30T01:08:38;7.30;76.00
65087;DHT22;52094;51.234;-2.310;2022-09-30T01:12:23;7.30;76.10
65087;DHT22;52094;51.234;-2.310;2022-09-30T01:16:31;7.30;76.10
65087;DHT22;52094;51.234;-2.310;2022-09-30T01:40:46;7.10;76.20
65087;DHT22;52094;51.234;-2.310;2022-09-30T01:52:43;6.90;76.30
65087;DHT22;52094;51.234;-2.310;2022-09-30T01:56:45;6.80;76.30
65087;DHT22;52094;51.234;-2.310;2022-09-30T02:00:54;6.80;77.10
65087;DHT22;52094;51.234;-2.310;2022-09-30T02:04:46;6.80;77.30
65087;DHT22;52094;51.234;-2.310;2022-09-30T02:08:49;6.70;76.50
65087;DHT22;52094;51.234;-2.310;2022-09-30T02:12:36;6.70;76.60
65087;DHT22;52094;51.234;-2.310;2022-09-30T02:16:26;6.70;76.50
65087;DHT22;52094;51.234;-2.310;2022-09-30T02:20:27;6.60;76.60
65087;DHT22;52094;51.234;-2.310;2022-09-30T02:24:14;6.60;76.90
65087;DHT22;52094;51.234;-2.310;2022-09-30T02:28:00;6.60;76.90
65087;DHT22;52094;51.234;-2.310;2022-09-30T02:31:50;6.60;76.90
65087;DHT22;52094;51.234;-2.310;2022-09-30T02:36:40;6.70;77.00
65087;DHT22;52094;51.234;-2.310;2022-09-30T02:40:30;6.60;78.10
65087;DHT22;52094;51.234;-2.310;2022-09-30T02:44:15;6.60;77.00
65087;DHT22;52094;51.234;-2.310;2022-09-30T02:56:27;6.50;77.20
65087;DHT22;52094;51.234;-2.310;2022-09-30T03:00:15;6.50;77.50
65087;DHT22;52094;51.234;-2.310;2022-09-30T03:04:02;6.50;79.00
65087;DHT22;52094;51.234;-2.310;2022-09-30T03:07:45;6.40;77.30
65087;DHT22;52094;51.234;-2.310;2022-09-30T03:11:29;6.40;77.30
65087;DHT22;52094;51.234;-2.310;2022-09-30T03:23:25;6.30;78.50
65087;DHT22;52094;51.234;-2.310;2022-09-30T03:31:24;6.30;77.60
65087;DHT22;52094;51.234;-2.310;2022-09-30T03:43:19;6.20;78.70
65087;DHT22;52094;51.234;-2.310;2022-09-30T03:47:09;6.30;78.80
65087;DHT22;52094;51.234;-2.310;2022-09-30T03:51:04;6.30;78.10
65087;DHT22;52094;51.234;-2.310;2022-09-30T03:54:51;6.30;78.70
65087;DHT22;52094;51.234;-2.310;2022-09-30T03:58:42;6.20;78.00
65087;DHT22;52094;51.234;-2.310;2022-09-30T04:02:28;6.30;78.10
65087;DHT22;52094;51.234;-2.310;2022-09-30T04:06:13;6.20;78.10
65087;DHT22;52094;51.234;-2.310;2022-09-30T04:09:55;6.20;77.90
65087;DHT22;52094;51.234;-2.310;2022-09-30T04:13:38;6.20;78.10
65087;DHT22;52094;51.234;-2.310;2022-09-30T04:17:20;6.20;78.20
65087;DHT22;52094;51.234;-2.310;2022-09-30T04:21:10;6.20;78.20
65087;DHT22;52094;51.234;-2.310;2022-09-30T04:24:55;6.20;78.50
65087;DHT22;52094;51.234;-2.310;2022-09-30T04:28:38;6.20;78.60
65087;DHT22;52094;51.234;-2.310;2022-09-30T04:32:21;6.20;78.30
65087;DHT22;52094;51.234;-2.310;2022-09-30T04:36:04;6.20;78.50
65087;DHT22;52094;51.234;-2.310;2022-09-30T04:39:47;6.20;78.90
65087;DHT22;52094;51.234;-2.310;2022-09-30T04:44:01;6.10;78.40
65087;DHT22;52094;51.234;-2.310;2022-09-30T04:47:47;6.10;79.50
65087;DHT22;52094;51.234;-2.310;2022-09-30T04:51:31;6.00;78.30
65087;DHT22;52094;51.234;-2.310;2022-09-30T04:55:13;5.90;78.80
65087;DHT22;52094;51.234;-2.310;2022-09-30T04:58:55;5.90;78.70
65087;DHT22;52094;51.234;-2.310;2022-09-30T05:02:38;5.90;78.80
65087;DHT22;52094;51.234;-2.310;2022-09-30T05:06:20;5.90;78.90
65087;DHT22;52094;51.234;-2.310;2022-09-30T05:10:03;5.90;79.00
65087;DHT22;52094;51.234;-2.310;2022-09-30T05:13:46;5.90;79.40
65087;DHT22;52094;51.234;-2.310;2022-09-30T05:17:29;5.90;79.50
65087;DHT22;52094;51.234;-2.310;2022-09-30T05:21:14;5.90;79.60
65087;DHT22;52094;51.234;-2.310;2022-09-30T05:24:56;5.90;79.50
65087;DHT22;52094;51.234;-2.310;2022-09-30T05:28:40;5.90;79.50
65087;DHT22;52094;51.234;-2.310;2022-09-30T05:32:23;5.90;79.60
65087;DHT22;52094;51.234;-2.310;2022-09-30T05:36:13;5.90;79.70
65087;DHT22;52094;51.234;-2.310;2022-09-30T05:39:57;6.00;80.20
65087;DHT22;52094;51.234;-2.310;2022-09-30T05:43:41;5.90;80.00
65087;DHT22;52094;51.234;-2.310;2022-09-30T05:47:26;5.90;79.60
65087;DHT22;52094;51.234;-2.310;2022-09-30T05:51:09;5.90;80.00
65087;DHT22;52094;51.234;-2.310;2022-09-30T05:54:54;5.90;80.10
65087;DHT22;52094;51.234;-2.310;2022-09-30T05:58:39;6.00;80.40
65087;DHT22;52094;51.234;-2.310;2022-09-30T06:02:23;6.00;80.30
65087;DHT22;52094;51.234;-2.310;2022-09-30T06:06:06;6.10;80.40
65087;DHT22;52094;51.234;-2.310;2022-09-30T06:09:50;6.20;80.30
65087;DHT22;52094;51.234;-2.310;2022-09-30T06:13:33;6.20;80.30
65087;DHT22;52094;51.234;-2.310;2022-09-30T06:17:16;6.20;80.40
65087;DHT22;52094;51.234;-2.310;2022-09-30T06:21:01;6.40;80.50
65087;DHT22;52094;51.234;-2.310;2022-09-30T06:24:47;6.40;80.50
65087;DHT22;52094;51.234;-2.310;2022-09-30T06:28:36;6.50;80.50
65087;DHT22;52094;51.234;-2.310;2022-09-30T06:32:21;6.70;80.60
65087;DHT22;52094;51.234;-2.310;2022-09-30T06:36:04;6.80;81.80
65087;DHT22;52094;51.234;-2.310;2022-09-30T06:39:48;7.30;83.90
65087;DHT22;52094;51.234;-2.310;2022-09-30T06:43:31;8.00;85.30
65087;DHT22;52094;51.234;-2.310;2022-09-30T06:47:24;8.70;86.20
65087;DHT22;52094;51.234;-2.310;2022-09-30T06:51:07;9.40;86.40
65087;DHT22;52094;51.234;-2.310;2022-09-30T06:54:53;9.80;84.20
65087;DHT22;52094;51.234;-2.310;2022-09-30T06:58:37;10.20;84.20
65087;DHT22;52094;51.234;-2.310;2022-09-30T07:02:21;11.00;85.70
65087;DHT22;52094;51.234;-2.310;2022-09-30T07:06:04;11.90;86.40
65087;DHT22;52094;51.234;-2.310;2022-09-30T07:09:47;12.70;86.20
65087;DHT22;52094;51.234;-2.310;2022-09-30T07:13:38;13.20;83.90
65087;DHT22;52094;51.234;-2.310;2022-09-30T07:17:21;13.70;83.20
65087;DHT22;52094;51.234;-2.310;2022-09-30T07:21:03;13.80;79.00
65087;DHT22;52094;51.234;-2.310;2022-09-30T07:24:47;13.50;76.00
65087;DHT22;52094;51.234;-2.310;2022-09-30T07:28:31;13.30;75.90
65087;DHT22;52094;51.234;-2.310;2022-09-30T07:32:21;13.20;75.80
65087;DHT22;52094;51.234;-2.310;2022-09-30T07:36:04;12.90;75.00
65087;DHT22;52094;51.234;-2.310;2022-09-30T07:39:49;12.70;74.60
65087;DHT22;52094;51.234;-2.310;2022-09-30T07:43:33;12.50;74.30
65087;DHT22;52094;51.234;-2.310;2022-09-30T07:47:19;12.40;74.20
65087;DHT22;52094;51.234;-2.310;2022-09-30T07:51:02;12.10;74.20
65087;DHT22;52094;51.234;-2.310;2022-09-30T07:55:03;11.90;74.50
65087;DHT22;52094;51.234;-2.310;2022-09-30T07:58:46;11.80;75.90
65087;DHT22;52094;51.234;-2.310;2022-09-30T08:02:29;11.70;75.10
65087;DHT22;52094;51.234;-2.310;2022-09-30T08:06:17;11.70;75.30
65087;DHT22;52094;51.234;-2.310;2022-09-30T08:10:02;11.70;75.80
65087;DHT22;52094;51.234;-2.310;2022-09-30T08:13:53;11.80;76.10
65087;DHT22;52094;51.234;-2.310;2022-09-30T08:17:35;11.90;76.70
65087;DHT22;52094;51.234;-2.310;2022-09-30T08:21:17;12.20;77.70
65087;DHT22;52094;51.234;-2.310;2022-09-30T08:24:59;12.30;76.50
65087;DHT22;52094;51.234;-2.310;2022-09-30T08:28:43;12.40;76.10
65087;DHT22;52094;51.234;-2.310;2022-09-30T08:32:30;12.40;75.90
65087;DHT22;52094;51.234;-2.310;2022-09-30T08:36:17;12.40;75.60
65087;DHT22;52094;51.234;-2.310;2022-09-30T08:40:00;12.40;75.50
65087;DHT22;52094;51.234;-2.310;2022-09-30T08:43:55;12.50;75.40
65087;DHT22;52094;51.234;-2.310;2022-09-30T08:51:51;12.40;75.90
65087;DHT22;52094;51.234;-2.310;2022-09-30T08:55:44;12.40;75.60
65087;DHT22;52094;51.234;-2.310;2022-09-30T09:03:18;12.60;76.20
65087;DHT22;52094;51.234;-2.310;2022-09-30T09:07:08;12.70;75.90
65087;DHT22;52094;51.234;-2.310;2022-09-30T09:11:05;12.70;75.90
65087;DHT22;52094;51.234;-2.310;2022-09-30T09:22:29;12.90;76.10
65087;DHT22;52094;51.234;-2.310;2022-09-30T09:26:14;13.00;75.70
65087;DHT22;52094;51.234;-2.310;2022-09-30T09:30:07;12.90;75.60
65087;DHT22;52094;51.234;-2.310;2022-09-30T09:33:58;12.90;75.90
65087;DHT22;52094;51.234;-2.310;2022-09-30T09:42:30;13.10;76.80
65087;DHT22;52094;51.234;-2.310;2022-09-30T09:46:48;13.10;76.90
65087;DHT22;52094;51.234;-2.310;2022-09-30T09:51:39;13.20;76.90
65087;DHT22;52094;51.234;-2.310;2022-09-30T09:54:51;13.20;76.30
65087;DHT22;52094;51.234;-2.310;2022-09-30T09:58:34;13.30;76.40
65087;DHT22;52094;51.234;-2.310;2022-09-30T10:02:22;13.40;76.60
65087;DHT22;52094;51.234;-2.310;2022-09-30T10:06:10;13.70;76.80
65087;DHT22;52094;51.234;-2.310;2022-09-30T10:10:26;13.70;76.80
65087;DHT22;52094;51.234;-2.310;2022-09-30T10:14:16;14.00;77.10
65087;DHT22;52094;51.234;-2.310;2022-09-30T10:18:00;14.20;76.80
65087;DHT22;52094;51.234;-2.310;2022-09-30T10:21:43;14.40;76.40
65087;DHT22;52094;51.234;-2.310;2022-09-30T10:25:25;14.60;76.40
65087;DHT22;52094;51.234;-2.310;2022-09-30T10:29:32;14.70;76.30
65087;DHT22;52094;51.234;-2.310;2022-09-30T10:33:32;14.80;76.20
65087;DHT22;52094;51.234;-2.310;2022-09-30T10:37:20;14.90;75.50
65087;DHT22;52094;51.234;-2.310;2022-09-30T10:41:04;14.80;75.60
65087;DHT22;52094;51.234;-2.310;2022-09-30T10:49:19;15.00;75.80
65087;DHT22;52094;51.234;-2.310;2022-09-30T10:53:13;15.00;75.80
65087;DHT22;52094;51.234;-2.310;2022-09-30T10:57:00;15.20;76.00
65087;DHT22;52094;51.234;-2.310;2022-09-30T11:01:29;15.50;76.30
65087;DHT22;52094;51.234;-2.310;2022-09-30T11:05:14;15.80;76.00
65087;DHT22;52094;51.234;-2.310;2022-09-30T11:09:10;16.10;74.80
65087;DHT22;52094;51.234;-2.310;2022-09-30T11:21:18;16.50;74.10
65087;DHT22;52094;51.234;-2.310;2022-09-30T11:25:04;16.50;73.40
65087;DHT22;52094;51.234;-2.310;2022-09-30T11:32:55;16.20;73.80
65087;DHT22;52094;51.234;-2.310;2022-09-30T11:41:25;16.20;73.40
65087;DHT22;52094;51.234;-2.310;2022-09-30T11:53:33;16.00;73.60
65087;DHT22;52094;51.234;-2.310;2022-09-30T11:57:30;16.10;73.50
65087;DHT22;52094;51.234;-2.310;2022-09-30T12:01:29;16.20;73.10
65087;DHT22;52094;51.234;-2.310;2022-09-30T12:05:25;16.10;73.00
65087;DHT22;52094;51.234;-2.310;2022-09-30T12:09:24;16.10;72.70
65087;DHT22;52094;51.234;-2.310;2022-09-30T12:13:15;16.10;73.10
65087;DHT22;52094;51.234;-2.310;2022-09-30T12:17:01;15.90;72.90
65087;DHT22;52094;51.234;-2.310;2022-09-30T12:20:52;15.80;73.20
65087;DHT22;52094;51.234;-2.310;2022-09-30T12:24:37;15.70;73.50
65087;DHT22;52094;51.234;-2.310;2022-09-30T12:28:32;15.60;73.60
65087;DHT22;52094;51.234;-2.310;2022-09-30T12:36:48;15.20;74.00
65087;DHT22;52094;51.234;-2.310;2022-09-30T12:49:03;14.80;75.80
65087;DHT22;52094;51.234;-2.310;2022-09-30T12:52:46;14.70;75.20
65087;DHT22;52094;51.234;-2.310;2022-09-30T12:56:29;14.60;75.70
65087;DHT22;52094;51.234;-2.310;2022-09-30T13:00:19;14.50;75.70
65087;DHT22;52094;51.234;-2.310;2022-09-30T13:08:07;14.40;76.00
65087;DHT22;52094;51.234;-2.310;2022-09-30T13:15:45;14.30;76.70
65087;DHT22;52094;51.234;-2.310;2022-09-30T13:19:37;14.20;76.10
65087;DHT22;52094;51.234;-2.310;2022-09-30T13:23:41;14.20;77.00
65087;DHT22;52094;51.234;-2.310;2022-09-30T13:43:55;14.20;76.60
65087;DHT22;52094;51.234;-2.310;2022-09-30T13:51:24;14.20;77.80
65087;DHT22;52094;51.234;-2.310;2022-09-30T13:55:16;14.00;76.80
65087;DHT22;52094;51.234;-2.310;2022-09-30T14:15:24;13.80;79.40
65087;DHT22;52094;51.234;-2.310;2022-09-30T14:23:00;13.80;78.20
65087;DHT22;52094;51.234;-2.310;2022-09-30T14:31:16;13.70;79.20
65087;DHT22;52094;51.234;-2.310;2022-09-30T14:35:04;13.80;78.60
65087;DHT22;52094;51.234;-2.310;2022-09-30T14:38:50;13.70;78.50
65087;DHT22;52094;51.234;-2.310;2022-09-30T14:42:36;13.70;78.30
65087;DHT22;52094;51.234;-2.310;2022-09-30T14:46:46;13.70;78.70
65087;DHT22;52094;51.234;-2.310;2022-09-30T14:50:41;13.70;81.60
65087;DHT22;52094;51.234;-2.310;2022-09-30T14:54:26;13.70;79.90
65087;DHT22;52094;51.234;-2.310;2022-09-30T14:58:22;13.70;80.00
65087;DHT22;52094;51.234;-2.310;2022-09-30T15:02:18;13.70;79.80
65087;DHT22;52094;51.234;-2.310;2022-09-30T15:06:04;13.70;80.90
65087;DHT22;52094;51.234;-2.310;2022-09-30T15:09:47;13.70;79.60
65087;DHT22;52094;51.234;-2.310;2022-09-30T15:13:36;13.70;79.90
65087;DHT22;52094;51.234;-2.310;2022-09-30T15:17:20;13.70;80.40
65087;DHT22;52094;51.234;-2.310;2022-09-30T15:21:12;13.70;79.70
65087;DHT22;52094;51.234;-2.310;2022-09-30T15:24:56;13.70;81.30
65087;DHT22;52094;51.234;-2.310;2022-09-30T15:28:40;13.70;80.30
65087;DHT22;52094;51.234;-2.310;2022-09-30T15:32:30;13.70;80.30
65087;DHT22;52094;51.234;-2.310;2022-09-30T15:36:16;13.70;80.70
65087;DHT22;52094;51.234;-2.310;2022-09-30T15:40:00;13.70;80.30
65087;DHT22;52094;51.234;-2.310;2022-09-30T15:44:01;13.70;80.40
65087;DHT22;52094;51.234;-2.310;2022-09-30T15:47:58;13.70;81.60
65087;DHT22;52094;51.234;-2.310;2022-09-30T15:51:43;13.70;82.40
65087;DHT22;52094;51.234;-2.310;2022-09-30T15:55:41;13.70;82.10
65087;DHT22;52094;51.234;-2.310;2022-09-30T15:59:55;13.80;82.40
65087;DHT22;52094;51.234;-2.310;2022-09-30T16:03:39;13.80;83.00
65087;DHT22;52094;51.234;-2.310;2022-09-30T16:07:28;13.80;81.30
65087;DHT22;52094;51.234;-2.310;2022-09-30T16:11:33;13.90;81.50
65087;DHT22;52094;51.234;-2.310;2022-09-30T16:15:17;14.00;84.60
65087;DHT22;52094;51.234;-2.310;2022-09-30T16:19:00;14.00;82.00
65087;DHT22;52094;51.234;-2.310;2022-09-30T16:22:54;14.00;81.50
65087;DHT22;52094;51.234;-2.310;2022-09-30T16:26:43;14.10;82.50
65087;DHT22;52094;51.234;-2.310;2022-09-30T16:30:27;14.10;81.80
65087;DHT22;52094;51.234;-2.310;2022-09-30T16:34:28;14.10;81.60
65087;DHT22;52094;51.234;-2.310;2022-09-30T16:38:13;14.20;84.20
65087;DHT22;52094;51.234;-2.310;2022-09-30T16:41:55;14.20;81.60
65087;DHT22;52094;51.234;-2.310;2022-09-30T16:45:38;14.20;82.20
65087;DHT22;52094;51.234;-2.310;2022-09-30T16:49:21;14.20;81.70
65087;DHT22;52094;51.234;-2.310;2022-09-30T16:53:03;14.30;82.10
65087;DHT22;52094;51.234;-2.310;2022-09-30T16:56:45;14.30;82.10
65087;DHT22;52094;51.234;-2.310;2022-09-30T17:00:27;14.40;82.00
65087;DHT22;52094;51.234;-2.310;2022-09-30T17:04:10;14.40;82.00
65087;DHT22;52094;51.234;-2.310;2022-09-30T17:07:58;14.50;82.40
65087;DHT22;52094;51.234;-2.310;2022-09-30T17:11:40;14.50;82.40
65087;DHT22;52094;51.234;-2.310;2022-09-30T17:15:22;14.50;82.10
65087;DHT22;52094;51.234;-2.310;2022-09-30T17:19:04;14.50;82.50
65087;DHT22;52094;51.234;-2.310;2022-09-30T17:22:46;14.60;82.40
65087;DHT22;52094;51.234;-2.310;2022-09-30T17:26:28;14.60;82.20
65087;DHT22;52094;51.234;-2.310;2022-09-30T17:30:11;14.60;82.90
65087;DHT22;52094;51.234;-2.310;2022-09-30T17:33:53;14.70;82.30
65087;DHT22;52094;51.234;-2.310;2022-09-30T17:37:35;14.70;82.40
65087;DHT22;52094;51.234;-2.310;2022-09-30T17:41:26;14.70;83.00
65087;DHT22;52094;51.234;-2.310;2022-09-30T17:45:28;14.70;82.80
65087;DHT22;52094;51.234;-2.310;2022-09-30T17:49:11;14.80;83.10
65087;DHT22;52094;51.234;-2.310;2022-09-30T17:52:53;14.80;83.50
65087;DHT22;52094;51.234;-2.310;2022-09-30T17:56:36;14.80;84.10
65087;DHT22;52094;51.234;-2.310;2022-09-30T18:00:21;14.90;85.20
65087;DHT22;52094;51.234;-2.310;2022-09-30T18:04:03;14.90;84.90
65087;DHT22;52094;51.234;-2.310;2022-09-30T18:07:46;15.00;83.60
65087;DHT22;52094;51.234;-2.310;2022-09-30T18:11:28;15.00;83.70
65087;DHT22;52094;51.234;-2.310;2022-09-30T18:15:12;15.10;83.80
65087;DHT22;52094;51.234;-2.310;2022-09-30T18:19:02;15.10;83.80
65087;DHT22;52094;51.234;-2.310;2022-09-30T18:22:45;15.20;84.30
65087;DHT22;52094;51.234;-2.310;2022-09-30T18:26:29;15.20;84.40
65087;DHT22;52094;51.234;-2.310;2022-09-30T18:30:16;15.20;84.40
65087;DHT22;52094;51.234;-2.310;2022-09-30T18:34:02;15.20;84.30
65087;DHT22;52094;51.234;-2.310;2022-09-30T18:37:48;15.20;85.00
65087;DHT22;52094;51.234;-2.310;2022-09-30T18:41:31;15.30;84.90
65087;DHT22;52094;51.234;-2.310;2022-09-30T18:45:16;15.30;84.90
65087;DHT22;52094;51.234;-2.310;2022-09-30T18:48:58;15.40;85.10
65087;DHT22;52094;51.234;-2.310;2022-09-30T18:52:40;15.40;85.30
65087;DHT22;52094;51.234;-2.310;2022-09-30T18:56:24;15.40;85.20
65087;DHT22;52094;51.234;-2.310;2022-09-30T19:00:12;15.40;85.20
65087;DHT22;52094;51.234;-2.310;2022-09-30T19:03:55;15.50;88.20
65087;DHT22;52094;51.234;-2.310;2022-09-30T19:07:37;15.50;85.00
65087;DHT22;52094;51.234;-2.310;2022-09-30T19:11:22;15.50;85.10
65087;DHT22;52094;51.234;-2.310;2022-09-30T19:15:08;15.50;85.40
65087;DHT22;52094;51.234;-2.310;2022-09-30T19:18:51;15.60;85.00
65087;DHT22;52094;51.234;-2.310;2022-09-30T19:22:35;15.60;85.00
65087;DHT22;52094;51.234;-2.310;2022-09-30T19:26:20;15.60;84.80
65087;DHT22;52094;51.234;-2.310;2022-09-30T19:30:10;15.60;85.60
65087;DHT22;52094;51.234;-2.310;2022-09-30T19:33:53;15.60;85.30
65087;DHT22;52094;51.234;-2.310;2022-09-30T19:37:38;15.70;85.30
65087;DHT22;52094;51.234;-2.310;2022-09-30T19:41:28;15.60;85.40
65087;DHT22;52094;51.234;-2.310;2022-09-30T19:45:13;15.70;85.40
65087;DHT22;52094;51.234;-2.310;2022-09-30T19:48:57;15.70;85.20
65087;DHT22;52094;51.234;-2.310;2022-09-30T19:52:40;15.70;85.20
65087;DHT22;52094;51.234;-2.310;2022-09-30T19:56:42;15.70;85.50
65087;DHT22;52094;51.234;-2.310;2022-09-30T20:00:28;15.70;85.60
65087;DHT22;52094;51.234;-2.310;2022-09-30T20:04:10;15.60;85.20
65087;DHT22;52094;51.234;-2.310;2022-09-30T20:07:55;15.60;85.30
65087;DHT22;52094;51.234;-2.310;2022-09-30T20:11:38;15.50;85.10
65087;DHT22;52094;51.234;-2.310;2022-09-30T20:15:20;15.50;85.50
65087;DHT22;52094;51.234;-2.310;2022-09-30T20:19:27;15.50;85.30
65087;DHT22;52094;51.234;-2.310;2022-09-30T20:23:09;15.40;85.30
65087;DHT22;52094;51.234;-2.310;2022-09-30T20:26:52;15.40;85.80
65087;DHT22;52094;51.234;-2.310;2022-09-30T20:30:38;15.40;85.60
65087;DHT22;52094;51.234;-2.310;2022-09-30T20:34:20;15.40;85.70
65087;DHT22;52094;51.234;-2.310;2022-09-30T20:38:02;15.40;85.60
65087;DHT22;52094;51.234;-2.310;2022-09-30T20:41:45;15.40;85.70
65087;DHT22;52094;51.234;-2.310;2022-09-30T20:45:28;15.40;85.80
65087;DHT22;52094;51.234;-2.310;2022-09-30T20:49:10;15.40;85.80
65087;DHT22;52094;51.234;-2.310;2022-09-30T20:52:52;15.40;85.80
65087;DHT22;52094;51.234;-2.310;2022-09-30T20:56:34;15.40;85.80
65087;DHT22;52094;51.234;-2.310;2022-09-30T21:00:38;15.30;85.80
65087;DHT22;52094;51.234;-2.310;2022-09-30T21:04:21;15.30;85.70
65087;DHT22;52094;51.234;-2.310;2022-09-30T21:08:03;15.30;85.80
65087;DHT22;52094;51.234;-2.310;2022-09-30T21:11:48;15.30;85.80
65087;DHT22;52094;51.234;-2.310;2022-09-30T21:15:30;15.20;85.70
65087;DHT22;52094;51.234;-2.310;2022-09-30T21:19:12;15.20;85.60
65087;DHT22;52094;51.234;-2.310;2022-09-30T21:22:54;15.20;85.60
65087;DHT22;52094;51.234;-2.310;2022-09-30T21:26:36;15.10;85.90
65087;DHT22;52094;51.234;-2.310;2022-09-30T21:30:18;15.10;85.80
65087;DHT22;52094;51.234;-2.310;2022-09-30T21:34:00;15.00;85.80
65087;DHT22;52094;51.234;-2.310;2022-09-30T21:37:42;15.00;85.90
65087;DHT22;52094;51.234;-2.310;2022-09-30T21:41:24;15.00;86.10
65087;DHT22;52094;51.234;-2.310;2022-09-30T21:45:07;15.00;86.20
65087;DHT22;52094;51.234;-2.310;2022-09-30T21:48:49;14.90;86.20
65087;DHT22;52094;51.234;-2.310;2022-09-30T21:52:34;14.90;86.40
65087;DHT22;52094;51.234;-2.310;2022-09-30T21:56:18;14.90;86.40
65087;DHT22;52094;51.234;-2.310;2022-09-30T22:00:00;14.90;86.40
65087;DHT22;52094;51.234;-2.310;2022-09-30T22:03:43;14.90;86.70
65087;DHT22;52094;51.234;-2.310;2022-09-30T22:07:25;14.90;86.70
65087;DHT22;52094;51.234;-2.310;2022-09-30T22:11:19;14.90;86.60
65087;DHT22;52094;51.234;-2.310;2022-09-30T22:15:06;14.90;86.40
65087;DHT22;52094;51.234;-2.310;2022-09-30T22:18:52;14.90;86.70
65087;DHT22;52094;51.234;-2.310;2022-09-30T22:22:35;14.90;86.60
65087;DHT22;52094;51.234;-2.310;2022-09-30T22:26:19;14.90;86.80
65087;DHT22;52094;51.234;-2.310;2022-09-30T22:30:02;14.90;86.80
65087;DHT22;52094;51.234;-2.310;2022-09-30T22:33:54;14.90;86.70
65087;DHT22;52094;51.234;-2.310;2022-09-30T22:37:55;14.90;86.70
65087;DHT22;52094;51.234;-2.310;2022-09-30T22:41:56;14.90;86.60
65087;DHT22;52094;51.234;-2.310;2022-09-30T22:45:38;14.90;86.60
65087;DHT22;52094;51.234;-2.310;2022-09-30T22:49:21;14.90;86.50
65087;DHT22;52094;51.234;-2.310;2022-09-30T22:53:05;14.90;86.60
65087;DHT22;52094;51.234;-2.310;2022-09-30T22:56:47;14.80;86.50
65087;DHT22;52094;51.234;-2.310;2022-09-30T23:00:31;14.80;86.50
65087;DHT22;52094;51.234;-2.310;2022-09-30T23:04:15;14.80;86.60
65087;DHT22;52094;51.234;-2.310;2022-09-30T23:07:58;14.80;86.50
65087;DHT22;52094;51.234;-2.310;2022-09-30T23:11:40;14.70;86.30
65087;DHT22;52094;51.234;-2.310;2022-09-30T23:15:24;14.70;86.00
65087;DHT22;52094;51.234;-2.310;2022-09-30T23:19:06;14.60;85.90
65087;DHT22;52094;51.234;-2.310;2022-09-30T23:22:48;14.50;86.20
65087;DHT22;52094;51.234;-2.310;2022-09-30T23:26:30;14.50;86.40
65087;DHT22;52094;51.234;-2.310;2022-09-30T23:30:12;14.50;86.60
65087;DHT22;52094;51.234;-2.310;2022-09-30T23:33:56;14.60;86.80
65087;DHT22;52094;51.234;-2.310;2022-09-30T23:37:39;14.60;86.90
65087;DHT22;52094;51.234;-2.310;2022-09-30T23:41:21;14.60;86.90
65087;DHT22;52094;51.234;-2.310;2022-09-30T23:45:03;14.50;86.90
65087;DHT22;52094;51.234;-2.310;2022-09-30T23:48:45;14.60;86.90
65087;DHT22;52094;51.234;-2.310;2022-09-30T23:52:27;14.50;86.90
65087;DHT22;52094;51.234;-2.310;2022-09-30T23:56:16;14.60;86.90
65087;DHT22;52094;51.234;-2.310;2022-09-30T23:59:58;14.50;86.90
